createdAt,value
2023-03-12T00:01:33.393Z,101035.03
2023-03-12T00:04:02.877Z,101039.31
2023-03-12T00:06:30.693Z,101037.44
2023-03-12T00:08:58.916Z,101040.13
2023-03-12T00:11:26.598Z,101043.69
2023-03-12T00:13:57.619Z,101033.19
2023-03-12T00:16:26.231Z,101026.09
2023-03-12T00:18:57.092Z,101032.41
2023-03-12T00:21:25.638Z,101024.50
2023-03-12T00:23:54.105Z,101022.84
2023-03-12T00:26:23.032Z,101024.63
2023-03-12T00:28:51.571Z,101024.63
2023-03-12T00:31:23.137Z,101023.78
2023-03-12T00:33:51.151Z,101017.63
2023-03-12T00:36:19.757Z,101018.53
2023-03-12T00:38:47.615Z,101009.72
2023-03-12T00:41:15.286Z,101005.28
2023-03-12T00:43:43.036Z,100994.72
2023-03-12T00:46:10.834Z,100993.00
2023-03-12T00:48:39.952Z,101000.16
2023-03-12T00:51:07.947Z,100999.31
2023-03-12T00:53:35.922Z,100986.09
2023-03-12T00:56:04.260Z,100986.09
2023-03-12T00:58:32.620Z,100989.59
2023-03-12T01:01:00.687Z,100983.34
2023-03-12T01:03:28.854Z,100973.69
2023-03-12T01:05:57.887Z,100981.63
2023-03-12T01:08:25.586Z,100971.91
2023-03-12T01:10:53.547Z,100969.16
2023-03-12T01:13:21.551Z,100966.53
2023-03-12T01:15:49.397Z,100958.69
2023-03-12T01:18:17.082Z,100963.97
2023-03-12T01:20:45.034Z,100960.41
2023-03-12T01:23:14.288Z,100963.13
2023-03-12T01:25:47.407Z,100955.31
2023-03-12T01:28:15.164Z,100957.19
2023-03-12T01:30:42.832Z,100953.69
2023-03-12T01:33:10.719Z,100951.13
2023-03-12T01:35:39.533Z,100955.53
2023-03-12T01:38:07.497Z,100952.03
2023-03-12T01:40:38.009Z,100945.88
2023-03-12T01:43:24.924Z,100942.31
2023-03-12T01:46:29.953Z,100937.00
2023-03-12T01:49:02.809Z,100944.06
2023-03-12T01:51:34.776Z,100945.00
2023-03-12T01:54:06.903Z,100946.81
2023-03-12T01:56:37.674Z,100941.50
2023-03-12T01:59:11.862Z,100945.03
2023-03-12T02:01:41.599Z,100930.94
2023-03-12T02:04:09.319Z,100919.53
2023-03-12T02:06:43.780Z,100918.59
2023-03-12T02:09:12.599Z,100926.53
2023-03-12T02:11:41.747Z,100911.53
2023-03-12T02:14:10.138Z,100908.91
2023-03-12T02:16:38.002Z,100902.78
2023-03-12T02:19:14.231Z,100905.34
2023-03-12T02:21:42.194Z,100904.53
2023-03-12T02:24:19.413Z,100894.84
2023-03-12T02:26:49.739Z,100900.16
2023-03-12T02:29:18.273Z,100903.69
2023-03-12T02:31:51.352Z,100915.16
2023-03-12T02:34:19.151Z,100901.06
2023-03-12T02:36:46.872Z,100900.22
2023-03-12T02:39:14.626Z,100896.66
2023-03-12T02:41:45.721Z,100898.44
2023-03-12T02:44:19.207Z,100895.78
2023-03-12T02:46:50.082Z,100887.84
2023-03-12T02:49:19.474Z,100894.91
2023-03-12T02:51:48.476Z,100879.00
2023-03-12T02:54:18.614Z,100878.00
2023-03-12T02:56:46.720Z,100875.25
2023-03-12T02:59:17.881Z,100869.00
2023-03-12T03:01:45.730Z,100874.19
2023-03-12T03:04:13.912Z,100867.09
2023-03-12T03:06:44.956Z,100859.16
2023-03-12T03:09:12.739Z,100861.78
2023-03-12T03:11:40.948Z,100856.50
2023-03-12T03:14:08.699Z,100853.88
2023-03-12T03:16:38.203Z,100859.16
2023-03-12T03:19:06.767Z,100856.56
2023-03-12T03:21:34.980Z,100858.38
2023-03-12T03:24:02.733Z,100860.19
2023-03-12T03:26:30.841Z,100861.06
2023-03-12T03:28:58.494Z,100854.03
2023-03-12T03:31:26.209Z,100844.28
2023-03-12T03:33:55.385Z,100853.97
2023-03-12T03:36:23.267Z,100858.38
2023-03-12T03:38:51.126Z,100845.19
2023-03-12T03:41:19.716Z,100842.59
2023-03-12T03:43:48.188Z,100839.13
2023-03-12T03:46:16.939Z,100837.41
2023-03-12T03:48:44.733Z,100838.28
2023-03-12T03:51:13.792Z,100842.75
2023-03-12T03:53:41.495Z,100850.72
2023-03-12T03:56:10.625Z,100841.03
2023-03-12T03:58:38.851Z,100839.19
2023-03-12T04:01:07.116Z,100834.81
2023-03-12T04:03:35.152Z,100840.13
2023-03-12T04:06:06.022Z,100830.44
2023-03-12T04:08:37.121Z,100834.91
2023-03-12T04:11:08.850Z,100833.94
2023-03-12T04:13:36.844Z,100834.88
2023-03-12T04:16:05.046Z,100822.53
2023-03-12T04:18:33.233Z,100835.75
2023-03-12T04:21:00.926Z,100830.50
2023-03-12T04:23:28.782Z,100834.00
2023-03-12T04:25:57.861Z,100831.34
2023-03-12T04:28:25.633Z,100817.16
2023-03-12T04:30:59.410Z,100805.69
2023-03-12T04:33:27.250Z,100810.09
2023-03-12T04:35:55.125Z,100809.31
2023-03-12T04:38:24.807Z,100804.94
2023-03-12T04:41:00.778Z,100802.31
2023-03-12T04:43:29.137Z,100803.22
2023-03-12T04:45:57.654Z,100802.34
2023-03-12T04:48:25.953Z,100797.00
2023-03-12T04:50:53.782Z,100794.38
2023-03-12T04:53:21.616Z,100793.44
2023-03-12T04:55:49.338Z,100790.81
2023-03-12T04:58:18.610Z,100792.63
2023-03-12T05:00:46.853Z,100789.16
2023-03-12T05:03:14.578Z,100771.59
2023-03-12T05:05:42.415Z,100770.72
2023-03-12T05:08:10.169Z,100763.66
2023-03-12T05:10:37.990Z,100761.03
2023-03-12T05:13:05.649Z,100756.63
2023-03-12T05:15:38.013Z,100768.13
2023-03-12T05:18:05.758Z,100765.44
2023-03-12T05:20:33.447Z,100752.25
2023-03-12T05:23:01.109Z,100757.50
2023-03-12T05:25:28.832Z,100764.56
2023-03-12T05:27:56.733Z,100762.78
2023-03-12T05:30:24.659Z,100754.81
2023-03-12T05:32:53.722Z,100751.31
2023-03-12T05:35:21.453Z,100749.53
2023-03-12T05:37:49.225Z,100755.81
2023-03-12T05:40:17.086Z,100756.69
2023-03-12T05:42:44.728Z,100754.88
2023-03-12T05:45:12.658Z,100740.81
2023-03-12T05:47:40.354Z,100731.94
2023-03-12T05:50:11.390Z,100716.97
2023-03-12T05:52:39.177Z,100716.13
2023-03-12T05:55:08.575Z,100695.75
2023-03-12T05:57:36.328Z,100693.94
2023-03-12T06:00:05.125Z,100686.00
2023-03-12T06:02:32.874Z,100692.25
2023-03-12T06:05:00.717Z,100687.81
2023-03-12T06:07:29.718Z,100688.75
2023-03-12T06:09:57.455Z,100684.38
2023-03-12T06:12:25.138Z,100678.19
2023-03-12T06:14:52.756Z,100679.03
2023-03-12T06:17:20.431Z,100685.22
2023-03-12T06:19:51.810Z,100693.19
2023-03-12T06:22:19.621Z,100698.53
2023-03-12T06:24:48.693Z,100697.69
2023-03-12T06:27:16.809Z,100690.69
2023-03-12T06:29:46.373Z,100700.41
2023-03-12T06:32:14.130Z,100700.41
2023-03-12T06:34:42.028Z,100691.59
2023-03-12T06:37:09.743Z,100692.47
2023-03-12T06:39:37.788Z,100684.53
2023-03-12T06:42:07.123Z,100684.53
2023-03-12T06:44:34.911Z,100668.66
2023-03-12T06:47:02.646Z,100673.06
2023-03-12T06:49:33.206Z,100673.94
2023-03-12T06:52:00.964Z,100681.03
2023-03-12T06:54:28.732Z,100681.09
2023-03-12T06:56:56.447Z,100678.47
2023-03-12T06:59:25.660Z,100680.19
2023-03-12T07:01:53.772Z,100672.25
2023-03-12T07:04:21.819Z,100673.97
2023-03-12T07:06:51.262Z,100681.06
2023-03-12T07:09:19.390Z,100681.00
2023-03-12T07:11:47.256Z,100676.56
2023-03-12T07:14:15.090Z,100679.22
2023-03-12T07:16:44.266Z,100682.69
2023-03-12T07:19:11.988Z,100686.22
2023-03-12T07:21:39.738Z,100681.78
2023-03-12T07:24:08.832Z,100683.59
2023-03-12T07:26:36.869Z,100679.22
2023-03-12T07:29:05.249Z,100676.59
2023-03-12T07:31:33.045Z,100674.03
2023-03-12T07:34:03.083Z,100669.63
2023-03-12T07:36:30.961Z,100661.63
2023-03-12T07:38:58.867Z,100659.88
2023-03-12T07:41:26.678Z,100660.78
2023-03-12T07:43:54.408Z,100649.31
2023-03-12T07:46:22.147Z,100651.94
2023-03-12T07:48:49.988Z,100651.09
2023-03-12T07:51:19.052Z,100654.63
2023-03-12T07:53:46.815Z,100644.13
2023-03-12T07:56:14.705Z,100639.75
2023-03-12T07:58:42.618Z,100639.81
2023-03-12T08:01:10.520Z,100637.16
2023-03-12T08:03:39.054Z,100640.75
2023-03-12T08:06:31.931Z,100647.03
2023-03-12T08:08:59.720Z,100639.13
2023-03-12T08:11:29.674Z,100638.28
2023-03-12T08:13:57.476Z,100633.88
2023-03-12T08:16:25.337Z,100634.91
2023-03-12T08:18:53.115Z,100635.78
2023-03-12T08:21:20.983Z,100626.97
2023-03-12T08:23:50.052Z,100631.47
2023-03-12T08:26:17.873Z,100628.94
2023-03-12T08:28:45.904Z,100621.03
2023-03-12T08:31:16.738Z,100627.31
2023-03-12T08:33:44.586Z,100629.94
2023-03-12T08:36:12.351Z,100620.22
2023-03-12T08:38:40.129Z,100627.25
2023-03-12T08:41:10.286Z,100620.22
2023-03-12T08:43:37.993Z,100616.69
2023-03-12T08:46:06.143Z,100618.44
2023-03-12T08:48:34.591Z,100609.66
2023-03-12T08:51:04.338Z,100607.94
2023-03-12T08:53:33.274Z,100607.97
2023-03-12T08:56:01.197Z,100622.19
2023-03-12T08:58:31.364Z,100612.47
2023-03-12T09:00:59.332Z,100615.13
2023-03-12T09:03:27.304Z,100621.28
2023-03-12T09:06:04.973Z,100615.13
2023-03-12T09:08:34.042Z,100624.88
2023-03-12T09:11:02.728Z,100613.44
2023-03-12T09:13:50.753Z,100603.72
2023-03-12T09:16:20.049Z,100612.59
2023-03-12T09:18:47.785Z,100593.19
2023-03-12T09:21:15.528Z,100614.41
2023-03-12T09:23:43.429Z,100620.63
2023-03-12T09:26:11.454Z,100625.91
2023-03-12T09:28:40.751Z,100617.09
2023-03-12T09:31:08.577Z,100635.66
2023-03-12T09:33:36.381Z,100628.56
2023-03-12T09:36:04.786Z,100637.44
2023-03-12T09:38:35.336Z,100637.38
2023-03-12T09:41:05.582Z,100624.13
2023-03-12T09:43:38.809Z,100640.97
2023-03-12T09:46:14.826Z,100641.03
2023-03-12T09:48:44.721Z,100649.00
2023-03-12T09:51:21.262Z,100644.63
2023-03-12T09:53:52.704Z,100640.22
2023-03-12T09:56:22.943Z,100645.53
2023-03-12T09:58:54.613Z,100647.34
2023-03-12T10:01:36.498Z,100637.66
2023-03-12T10:04:25.763Z,100644.72
2023-03-12T10:07:00.318Z,100633.28
2023-03-12T10:09:41.633Z,100630.66
2023-03-12T10:12:19.644Z,100635.13
2023-03-12T10:15:03.730Z,100627.19
2023-03-12T10:17:44.995Z,100629.88
2023-03-12T10:20:41.676Z,100635.25
2023-03-12T10:23:14.363Z,100630.84
2023-03-12T10:25:48.294Z,100636.16
2023-03-12T10:28:19.586Z,100645.03
2023-03-12T10:30:51.531Z,100634.44
2023-03-12T10:33:22.352Z,100643.34
2023-03-12T10:35:52.208Z,100642.47
2023-03-12T10:38:26.900Z,100647.78
2023-03-12T10:40:54.651Z,100653.97
2023-03-12T10:43:22.727Z,100638.97
2023-03-12T10:46:03.151Z,100642.50
2023-03-12T10:48:32.493Z,100649.59
2023-03-12T10:51:05.780Z,100656.69
2023-03-12T10:53:35.539Z,100652.25
2023-03-12T10:56:06.956Z,100651.41
2023-03-12T10:58:37.896Z,100652.31
2023-03-12T11:01:21.840Z,100655.88
2023-03-12T11:03:52.041Z,100653.25
2023-03-12T11:06:27.466Z,100655.00
2023-03-12T11:09:18.366Z,100656.78
2023-03-12T11:11:48.405Z,100650.63
2023-03-12T11:14:20.076Z,100636.47
2023-03-12T11:16:48.079Z,100639.16
2023-03-12T11:19:29.157Z,100635.63
2023-03-12T11:21:58.974Z,100643.59
2023-03-12T11:24:27.198Z,100644.50
2023-03-12T11:27:03.167Z,100627.66
2023-03-12T11:29:33.400Z,100625.00
2023-03-12T11:32:07.227Z,100628.56
2023-03-12T11:34:39.428Z,100628.56
2023-03-12T11:37:16.177Z,100628.53
2023-03-12T11:40:00.154Z,100632.06
2023-03-12T11:42:41.320Z,100622.28
2023-03-12T11:45:18.697Z,100640.06
2023-03-12T11:47:58.352Z,100635.59
2023-03-12T11:50:33.730Z,100635.53
2023-03-12T11:53:18.441Z,100631.94
2023-03-12T11:55:57.000Z,100632.81
2023-03-12T11:58:40.795Z,100641.69
2023-03-12T12:01:14.074Z,100630.09
2023-03-12T12:04:21.426Z,100624.78
2023-03-12T12:07:01.762Z,100623.88
2023-03-12T12:09:38.202Z,100630.97
2023-03-12T12:12:22.465Z,100630.06
2023-03-12T12:15:04.810Z,100624.69
2023-03-12T12:17:43.093Z,100621.97
2023-03-12T12:20:21.592Z,100624.56
2023-03-12T12:23:05.637Z,100612.03
2023-03-12T12:25:47.423Z,100621.84
2023-03-12T12:28:28.677Z,100617.38
2023-03-12T12:31:09.239Z,100613.78
2023-03-12T12:33:52.873Z,100601.34
2023-03-12T12:36:20.789Z,100592.41
2023-03-12T12:38:56.852Z,100592.31
2023-03-12T12:41:26.417Z,100586.09
2023-03-12T12:43:57.795Z,100594.94
2023-03-12T12:46:29.201Z,100587.75
2023-03-12T12:49:02.164Z,100585.88
2023-03-12T12:51:33.970Z,100577.84
2023-03-12T12:54:09.670Z,100578.69
2023-03-12T12:56:44.870Z,100579.56
2023-03-12T12:59:27.489Z,100577.72
2023-03-12T13:01:58.566Z,100573.25
2023-03-12T13:04:29.642Z,100589.25
2023-03-12T13:07:01.406Z,100586.38
2023-03-12T13:09:43.499Z,100576.34
2023-03-12T13:12:19.232Z,100580.69
2023-03-12T13:14:48.205Z,100569.88
2023-03-12T13:17:31.209Z,100567.97
2023-03-12T13:20:10.793Z,100558.09
2023-03-12T13:23:10.303Z,100557.06
2023-03-12T13:25:53.340Z,100548.88
2023-03-12T13:28:35.840Z,100546.94
2023-03-12T13:31:29.004Z,100547.66
2023-03-12T13:33:59.405Z,100548.44
2023-03-12T13:36:29.121Z,100543.88
2023-03-12T13:39:01.774Z,100532.28
2023-03-12T13:41:39.059Z,100531.25
2023-03-12T13:44:30.249Z,100520.44
2023-03-12T13:47:03.047Z,100520.34
2023-03-12T13:49:38.449Z,100526.63
2023-03-12T13:52:22.129Z,100509.56
2023-03-12T13:54:59.558Z,100515.88
2023-03-12T13:57:38.760Z,100497.84
2023-03-12T14:00:16.440Z,100491.63
2023-03-12T14:02:49.988Z,100497.84
2023-03-12T14:05:19.671Z,100497.88
2023-03-12T14:08:06.909Z,100501.50
2023-03-12T14:10:46.756Z,100502.47
2023-03-12T14:13:29.841Z,100503.19
2023-03-12T14:16:06.841Z,100496.81
2023-03-12T14:18:36.866Z,100498.44
2023-03-12T14:21:11.565Z,100502.06
2023-03-12T14:23:45.509Z,100506.53
2023-03-12T14:26:24.523Z,100504.78
2023-03-12T14:29:00.751Z,100504.00
2023-03-12T14:31:33.684Z,100497.69
2023-03-12T14:34:07.031Z,100509.22
2023-03-12T14:36:40.790Z,100507.22
2023-03-12T14:39:23.263Z,100520.50
2023-03-12T14:41:56.840Z,100513.22
2023-03-12T14:44:28.090Z,100530.91
2023-03-12T14:47:01.271Z,100527.19
2023-03-12T14:49:30.244Z,100543.22
2023-03-12T14:51:59.870Z,100541.38
2023-03-12T14:54:31.785Z,100522.56
2023-03-12T14:56:59.534Z,100535.97
2023-03-12T14:59:33.149Z,100532.31
2023-03-12T15:02:05.239Z,100530.44
2023-03-12T15:04:35.848Z,100534.81
2023-03-12T15:07:07.830Z,100533.00
2023-03-12T15:09:37.465Z,100532.13
2023-03-12T15:12:07.849Z,100526.84
2023-03-12T15:14:42.394Z,100524.28
2023-03-12T15:17:16.589Z,100537.91
2023-03-12T15:19:45.352Z,100542.59
2023-03-12T15:22:16.943Z,100540.94
2023-03-12T15:24:45.121Z,100541.00
2023-03-12T15:27:21.926Z,100554.41
2023-03-12T15:29:51.121Z,100545.69
2023-03-12T15:32:21.554Z,100536.69
2023-03-12T15:34:49.867Z,100539.41
2023-03-12T15:37:24.850Z,100537.66
2023-03-12T15:39:54.368Z,100549.25
2023-03-12T15:42:25.354Z,100548.34
2023-03-12T15:44:57.189Z,100548.28
2023-03-12T15:47:27.781Z,100556.34
2023-03-12T15:49:58.919Z,100550.09
2023-03-12T15:52:32.504Z,100544.81
2023-03-12T15:55:07.389Z,100545.66
2023-03-12T15:57:41.752Z,100534.94
2023-03-12T16:00:33.067Z,100551.72
2023-03-12T16:03:04.008Z,100550.84
2023-03-12T16:05:33.392Z,100549.00
2023-03-12T16:08:03.641Z,100548.97
2023-03-12T16:10:36.035Z,100549.84
2023-03-12T16:13:04.869Z,100553.47
2023-03-12T16:15:38.504Z,100563.31
2023-03-12T16:18:06.401Z,100559.81
2023-03-12T16:20:34.158Z,100557.13
2023-03-12T16:23:02.186Z,100566.91
2023-03-12T16:25:29.996Z,100560.72
2023-03-12T16:28:02.727Z,100552.66
2023-03-12T16:30:32.915Z,100554.53
2023-03-12T16:33:06.080Z,100561.72
2023-03-12T16:35:36.223Z,100564.44
2023-03-12T16:38:04.131Z,100573.31
2023-03-12T16:40:34.913Z,100573.38
2023-03-12T16:43:04.684Z,100557.28
2023-03-12T16:45:35.928Z,100561.75
2023-03-12T16:48:07.396Z,100552.03
2023-03-12T16:50:35.246Z,100547.66
2023-03-12T16:53:03.978Z,100550.38
2023-03-12T16:55:41.569Z,100556.66
2023-03-12T16:58:14.173Z,100548.72
2023-03-12T17:00:43.733Z,100554.03
2023-03-12T17:03:20.585Z,100569.16
2023-03-12T17:05:48.412Z,100567.41
2023-03-12T17:08:16.919Z,100564.78
2023-03-12T17:10:44.879Z,100561.19
2023-03-12T17:13:20.600Z,100567.44
2023-03-12T17:15:49.333Z,100567.53
2023-03-12T17:18:19.204Z,100572.91
2023-03-12T17:20:47.842Z,100569.38
2023-03-12T17:23:15.932Z,100572.88
2023-03-12T17:25:45.371Z,100572.03
2023-03-12T17:28:15.368Z,100572.97
2023-03-12T17:30:44.088Z,100580.16
2023-03-12T17:33:14.003Z,100582.91
2023-03-12T17:35:44.222Z,100585.63
2023-03-12T17:38:12.953Z,100585.63
2023-03-12T17:40:41.778Z,100587.47
2023-03-12T17:43:09.857Z,100591.09
2023-03-12T17:45:37.885Z,100602.69
2023-03-12T17:48:05.822Z,100603.56
2023-03-12T17:50:33.557Z,100601.75
2023-03-12T17:53:02.949Z,100604.47
2023-03-12T17:55:30.802Z,100595.53
2023-03-12T17:57:58.585Z,100603.63
2023-03-12T18:00:26.345Z,100607.19
2023-03-12T18:02:54.163Z,100610.81
2023-03-12T18:05:22.627Z,100621.53
2023-03-12T18:07:52.272Z,100608.13
2023-03-12T18:10:21.723Z,100612.56
2023-03-12T18:12:49.643Z,100602.03
2023-03-12T18:15:18.037Z,100609.19
2023-03-12T18:17:46.061Z,100613.66
2023-03-12T18:20:25.840Z,100614.53
2023-03-12T18:23:00.091Z,100606.53
2023-03-12T18:25:29.200Z,100610.06
2023-03-12T18:27:56.936Z,100619.91
2023-03-12T18:30:24.686Z,100622.56
2023-03-12T18:32:52.464Z,100621.69
2023-03-12T18:35:20.275Z,100627.13
2023-03-12T18:37:48.015Z,100626.22
2023-03-12T18:40:15.856Z,100621.78
2023-03-12T18:42:44.950Z,100629.78
2023-03-12T18:45:13.239Z,100618.19
2023-03-12T18:47:41.987Z,100629.78
2023-03-12T18:50:11.232Z,100619.97
2023-03-12T18:52:39.304Z,100620.88
2023-03-12T18:55:07.706Z,100611.94
2023-03-12T18:57:35.521Z,100611.00
2023-03-12T19:00:06.358Z,100608.31
2023-03-12T19:02:34.124Z,100601.22
2023-03-12T19:05:04.120Z,100603.03
2023-03-12T19:07:32.191Z,100593.22
2023-03-12T19:10:00.411Z,100601.28
2023-03-12T19:12:30.402Z,100601.28
2023-03-12T19:14:59.589Z,100603.06
2023-03-12T19:17:29.364Z,100600.41
2023-03-12T19:19:57.836Z,100601.28
2023-03-12T19:22:25.564Z,100599.47
2023-03-12T19:24:54.043Z,100600.41
2023-03-12T19:27:21.877Z,100598.56
2023-03-12T19:29:49.633Z,100597.69
2023-03-12T19:32:17.455Z,100587.81
2023-03-12T19:34:50.128Z,100586.03
2023-03-12T19:37:19.708Z,100586.00
2023-03-12T19:39:47.466Z,100586.91
2023-03-12T19:42:15.280Z,100584.22
2023-03-12T19:44:43.209Z,100586.03
2023-03-12T19:47:11.123Z,100588.69
2023-03-12T19:49:38.839Z,100585.97
2023-03-12T19:52:07.989Z,100583.31
2023-03-12T19:54:35.837Z,100582.44
2023-03-12T19:57:03.720Z,100586.88
2023-03-12T19:59:31.521Z,100571.75
2023-03-12T20:02:01.607Z,100575.28
2023-03-12T20:04:30.237Z,100578.78
2023-03-12T20:06:57.970Z,100580.59
2023-03-12T20:09:27.205Z,100569.00
2023-03-12T20:11:55.014Z,100565.47
2023-03-12T20:14:25.919Z,100563.69
2023-03-12T20:16:54.034Z,100556.47
2023-03-12T20:19:21.781Z,100551.16
2023-03-12T20:21:50.402Z,100554.69
2023-03-12T20:24:18.164Z,100546.59
2023-03-12T20:26:47.542Z,100539.47
2023-03-12T20:29:15.336Z,100544.81
2023-03-12T20:31:44.340Z,100553.72
2023-03-12T20:34:12.194Z,100542.13
2023-03-12T20:36:39.908Z,100540.34
2023-03-12T20:39:07.714Z,100546.59
2023-03-12T20:41:35.575Z,100538.50
2023-03-12T20:44:04.679Z,100524.22
2023-03-12T20:46:32.368Z,100526.94
2023-03-12T20:49:00.132Z,100523.38
2023-03-12T20:51:27.878Z,100510.91
2023-03-12T20:53:55.626Z,100511.88
2023-03-12T20:56:23.684Z,100512.69
2023-03-12T20:58:52.158Z,100510.94
2023-03-12T21:01:24.373Z,100495.78
2023-03-12T21:03:52.232Z,100490.38
2023-03-12T21:06:20.021Z,100488.53
2023-03-12T21:08:50.622Z,100484.09
2023-03-12T21:11:18.562Z,100476.88
2023-03-12T21:13:46.310Z,100469.81
2023-03-12T21:16:14.016Z,100477.00
2023-03-12T21:18:45.887Z,100469.09
2023-03-12T21:21:13.755Z,100463.81
2023-03-12T21:23:41.571Z,100467.47
2023-03-12T21:26:10.116Z,100461.28
2023-03-12T21:28:37.843Z,100464.00
2023-03-12T21:31:07.367Z,100465.78
2023-03-12T21:33:35.286Z,100463.09
2023-03-12T21:36:13.890Z,100455.03
2023-03-12T21:38:42.895Z,100454.09
2023-03-12T21:41:12.543Z,100457.59
2023-03-12T21:43:41.242Z,100449.59
2023-03-12T21:46:11.138Z,100455.84
2023-03-12T21:48:39.390Z,100443.34
2023-03-12T21:51:10.766Z,100446.00
2023-03-12T21:53:39.156Z,100446.88
2023-03-12T21:56:08.691Z,100446.00
2023-03-12T21:58:37.469Z,100422.00
2023-03-12T22:01:08.240Z,100437.09
2023-03-12T22:03:36.764Z,100424.63
2023-03-12T22:06:04.899Z,100416.66
2023-03-12T22:08:34.728Z,100414.94
2023-03-12T22:11:02.762Z,100407.78
2023-03-12T22:13:30.469Z,100399.75
2023-03-12T22:15:59.742Z,100410.38
2023-03-12T22:18:28.649Z,100405.00
2023-03-12T22:20:59.702Z,100388.09
2023-03-12T22:23:27.388Z,100390.78
2023-03-12T22:25:56.802Z,100392.53
2023-03-12T22:28:25.898Z,100382.75
2023-03-12T22:30:58.489Z,100380.16
2023-03-12T22:33:26.090Z,100373.00
2023-03-12T22:35:53.857Z,100374.75
2023-03-12T22:38:21.755Z,100370.28
2023-03-12T22:40:49.798Z,100367.56
2023-03-12T22:43:18.852Z,100356.84
2023-03-12T22:45:46.561Z,100356.78
2023-03-12T22:48:14.255Z,100345.22
2023-03-12T22:50:41.944Z,100326.56
2023-03-12T22:53:09.879Z,100327.41
2023-03-12T22:55:37.515Z,100321.13
2023-03-12T22:58:05.881Z,100320.22
2023-03-12T23:00:34.947Z,100320.19
2023-03-12T23:03:02.765Z,100313.88
2023-03-12T23:05:30.415Z,100299.59
2023-03-12T23:07:58.176Z,100297.72
2023-03-12T23:10:25.847Z,100287.78
2023-03-12T23:12:53.568Z,100293.16
2023-03-12T23:15:24.510Z,100278.91
2023-03-12T23:17:58.093Z,100278.94
2023-03-12T23:20:25.824Z,100273.56
2023-03-12T23:22:53.544Z,100273.47
2023-03-12T23:25:21.218Z,100275.25
2023-03-12T23:27:48.940Z,100270.81
2023-03-12T23:30:16.747Z,100261.94
2023-03-12T23:32:44.561Z,100252.13
2023-03-12T23:35:13.672Z,100254.78
2023-03-12T23:37:41.469Z,100253.84
2023-03-12T23:40:11.158Z,100252.91
2023-03-12T23:42:38.859Z,100242.19
2023-03-12T23:45:07.974Z,100236.88
2023-03-12T23:47:35.679Z,100236.88
2023-03-12T23:50:03.652Z,100228.94
2023-03-12T23:52:32.770Z,100224.44
2023-03-12T23:55:00.431Z,100227.84
2023-03-12T23:57:28.692Z,100211.75
2023-03-12T23:59:56.386Z,100212.72
